createdAt,value
2019-03-24T00:00:01.811Z,18.57
2019-03-24T00:05:07.057Z,18.33
2019-03-24T00:10:12.621Z,17.40
2019-03-24T00:15:25.745Z,19.10
2019-03-24T00:20:24.653Z,18.60
2019-03-24T00:25:29.716Z,17.07
2019-03-24T00:30:34.971Z,17.23
2019-03-24T00:35:40.364Z,18.23
2019-03-24T00:40:45.748Z,19.27
2019-03-24T00:45:50.781Z,19.00
2019-03-24T00:50:55.931Z,18.17
2019-03-24T00:56:01.195Z,18.87
2019-03-24T01:01:06.659Z,18.13
2019-03-24T01:06:12.037Z,18.60
2019-03-24T01:11:17.573Z,18.83
2019-03-24T01:16:23.455Z,18.07
2019-03-24T01:21:28.734Z,18.80
2019-03-24T01:26:34.706Z,20.90
2019-03-24T01:31:39.949Z,18.47
2019-03-24T01:36:47.108Z,19.05
2019-03-24T01:41:52.441Z,19.97
2019-03-24T01:47:00.311Z,19.50
2019-03-24T01:52:09.254Z,19.10
2019-03-24T01:57:14.611Z,17.77
2019-03-24T02:02:21.013Z,17.77
2019-03-24T02:07:26.436Z,18.57
2019-03-24T02:12:31.881Z,19.93
2019-03-24T02:17:36.987Z,19.63
2019-03-24T02:22:42.767Z,20.37
2019-03-24T02:27:48.504Z,19.13
2019-03-24T02:32:54.306Z,19.40
2019-03-24T02:37:59.506Z,18.00
2019-03-24T02:43:05.608Z,17.37
2019-03-24T02:48:10.671Z,17.40
2019-03-24T02:53:16.164Z,16.00
2019-03-24T02:58:21.946Z,17.23
2019-03-24T03:03:27.611Z,16.83
2019-03-24T03:08:32.674Z,16.60
2019-03-24T03:13:38.010Z,17.63
2019-03-24T03:18:42.960Z,20.37
2019-03-24T03:23:48.786Z,18.77
2019-03-24T03:28:54.060Z,18.63
2019-03-24T03:33:59.655Z,18.23
2019-03-24T03:39:07.345Z,20.03
2019-03-24T03:44:12.840Z,19.47
2019-03-24T03:49:17.880Z,18.63
2019-03-24T03:54:23.452Z,18.45
2019-03-24T03:59:29.525Z,19.10
2019-03-24T04:04:34.817Z,20.47
2019-03-24T04:09:40.164Z,19.13
2019-03-24T04:14:45.636Z,19.60
2019-03-24T04:19:54.027Z,18.87
2019-03-24T04:25:03.507Z,18.60
2019-03-24T04:30:08.952Z,19.43
2019-03-24T04:35:13.996Z,18.73
2019-03-24T04:40:19.177Z,20.47
2019-03-24T04:45:24.273Z,21.10
2019-03-24T04:50:29.841Z,19.93
2019-03-24T04:55:35.636Z,19.77
2019-03-24T05:00:41.462Z,20.27
2019-03-24T05:05:47.817Z,20.60
2019-03-24T05:10:53.249Z,21.43
2019-03-24T05:15:58.557Z,19.40
2019-03-24T05:21:04.559Z,19.87
2019-03-24T05:26:09.826Z,20.83
2019-03-24T05:31:14.801Z,20.47
2019-03-24T05:36:20.609Z,22.03
2019-03-24T05:41:25.665Z,21.57
2019-03-24T05:46:31.153Z,21.33
2019-03-24T05:51:37.492Z,21.23
2019-03-24T05:56:43.405Z,20.83
2019-03-24T06:01:49.125Z,22.43
2019-03-24T06:06:54.432Z,21.17
2019-03-24T06:11:59.941Z,21.03
2019-03-24T06:17:05.102Z,20.07
2019-03-24T06:22:10.366Z,20.70
2019-03-24T06:27:15.738Z,19.57
2019-03-24T06:32:21.180Z,20.03
2019-03-24T06:37:26.544Z,17.93
2019-03-24T06:42:31.863Z,20.08
2019-03-24T06:47:37.082Z,18.10
2019-03-24T06:52:42.589Z,17.40
2019-03-24T06:57:48.868Z,18.90
2019-03-24T07:02:54.251Z,18.30
2019-03-24T07:07:59.670Z,17.40
2019-03-24T07:13:04.902Z,18.52
2019-03-24T07:18:19.208Z,18.70
2019-03-24T07:23:24.773Z,19.75
2019-03-24T07:28:30.987Z,19.90
2019-03-24T07:33:38.583Z,20.60
2019-03-24T07:38:44.089Z,19.73
2019-03-24T07:43:49.706Z,23.25
2019-03-24T07:48:55.555Z,21.30
2019-03-24T07:54:00.746Z,18.67
2019-03-24T07:59:06.317Z,19.97
2019-03-24T08:04:28.337Z,23.70
2019-03-24T08:09:34.003Z,26.40
2019-03-24T08:14:43.186Z,24.63
2019-03-24T08:19:49.588Z,24.77
2019-03-24T08:25:09.842Z,25.68
2019-03-24T08:30:20.487Z,25.48
2019-03-24T08:35:26.078Z,26.20
2019-03-24T08:40:31.747Z,28.13
2019-03-24T08:45:37.349Z,30.20
2019-03-24T08:50:45.875Z,29.52
2019-03-24T08:55:51.802Z,31.12
2019-03-24T09:01:00.548Z,28.60
2019-03-24T09:06:05.819Z,29.40
2019-03-24T09:11:11.728Z,28.30
2019-03-24T09:16:17.375Z,29.98
2019-03-24T09:21:22.448Z,28.85
2019-03-24T09:26:28.863Z,31.68
2019-03-24T09:31:34.487Z,32.08
2019-03-24T09:36:41.366Z,30.68
2019-03-24T09:41:46.532Z,32.93
2019-03-24T09:46:52.935Z,29.05
2019-03-24T09:52:01.506Z,32.83
2019-03-24T09:57:15.288Z,28.05
2019-03-24T10:02:25.878Z,28.38
2019-03-24T10:07:35.273Z,28.47
2019-03-24T10:12:42.513Z,28.02
2019-03-24T10:17:52.076Z,29.05
2019-03-24T10:22:58.309Z,29.47
2019-03-24T10:28:06.259Z,27.17
2019-03-24T10:33:12.436Z,25.45
2019-03-24T10:38:18.616Z,26.82
2019-03-24T10:43:24.780Z,27.05
2019-03-24T10:48:33.864Z,24.87
2019-03-24T10:53:41.460Z,25.85
2019-03-24T10:58:47.518Z,25.60
2019-03-24T11:03:53.546Z,31.20
2019-03-24T11:09:00.422Z,26.55
2019-03-24T11:14:05.811Z,26.03
2019-03-24T11:19:11.771Z,24.87
2019-03-24T11:24:19.660Z,29.42
2019-03-24T11:29:27.972Z,27.58
2019-03-24T11:34:34.436Z,26.62
2019-03-24T11:39:39.654Z,24.40
2019-03-24T11:44:45.393Z,26.00
2019-03-24T11:49:51.634Z,25.65
2019-03-24T11:55:02.044Z,26.25
2019-03-24T12:00:11.837Z,25.65
2019-03-24T12:05:17.559Z,23.92
2019-03-24T12:10:26.233Z,24.65
2019-03-24T12:15:32.777Z,23.98
2019-03-24T12:20:38.946Z,23.85
2019-03-24T12:25:45.824Z,24.60
2019-03-24T12:31:05.174Z,23.00
2019-03-24T12:36:11.902Z,22.43
2019-03-24T12:41:20.145Z,31.42
2019-03-24T12:46:26.610Z,32.48
2019-03-24T12:51:33.259Z,32.75
2019-03-24T12:56:42.591Z,31.00
2019-03-24T13:01:52.829Z,35.40
2019-03-24T13:06:58.451Z,37.90
2019-03-24T13:12:07.128Z,34.40
2019-03-24T13:17:12.795Z,33.55
2019-03-24T13:22:18.410Z,34.48
2019-03-24T13:27:23.917Z,33.23
2019-03-24T13:32:30.062Z,30.82
2019-03-24T13:37:35.886Z,31.55
2019-03-24T13:42:42.083Z,31.82
2019-03-24T13:47:47.471Z,31.47
2019-03-24T13:52:53.335Z,30.15
2019-03-24T13:57:58.933Z,28.57
2019-03-24T14:03:11.400Z,29.30
2019-03-24T14:08:19.894Z,24.30
2019-03-24T14:13:29.229Z,23.30
2019-03-24T14:18:35.709Z,23.42
2019-03-24T14:23:42.577Z,22.62
2019-03-24T14:28:48.835Z,22.85
2019-03-24T14:33:57.113Z,24.37
2019-03-24T14:39:08.485Z,25.70
2019-03-24T14:44:17.802Z,24.98
2019-03-24T14:49:26.889Z,23.67
2019-03-24T14:54:59.328Z,23.50
2019-03-24T15:00:05.593Z,22.90
2019-03-24T15:05:12.410Z,24.52
2019-03-24T15:10:18.733Z,23.47
2019-03-24T15:15:24.111Z,22.58
2019-03-24T15:20:30.442Z,23.55
2019-03-24T15:25:35.918Z,24.53
2019-03-24T15:30:42.135Z,23.97
2019-03-24T15:35:48.103Z,22.62
2019-03-24T15:40:53.996Z,24.23
2019-03-24T15:45:59.076Z,24.05
2019-03-24T15:51:04.760Z,23.37
2019-03-24T15:56:12.053Z,24.57
2019-03-24T16:01:17.091Z,25.27
2019-03-24T16:06:27.041Z,25.80
2019-03-24T16:11:35.305Z,25.10
2019-03-24T16:16:40.409Z,25.97
2019-03-24T16:21:48.453Z,25.37
2019-03-24T16:27:00.847Z,25.27
2019-03-24T16:32:06.763Z,25.07
2019-03-24T16:37:13.695Z,23.37
2019-03-24T16:42:19.190Z,24.00
2019-03-24T16:47:24.325Z,25.10
2019-03-24T16:52:31.751Z,26.40
2019-03-24T16:57:39.519Z,22.50
2019-03-24T17:02:44.981Z,23.10
2019-03-24T17:07:50.273Z,25.83
2019-03-24T17:12:55.783Z,24.47
2019-03-24T17:18:05.555Z,24.77
2019-03-24T17:23:13.632Z,26.10
2019-03-24T17:28:20.068Z,25.10
2019-03-24T17:33:26.173Z,27.03
2019-03-24T17:38:31.673Z,23.27
2019-03-24T17:43:37.244Z,23.77
2019-03-24T17:48:42.550Z,26.00
2019-03-24T17:54:02.022Z,24.70
2019-03-24T17:59:08.367Z,25.33
2019-03-24T18:04:15.816Z,25.83
2019-03-24T18:09:29.914Z,23.77
2019-03-24T18:15:25.871Z,22.87
2019-03-24T18:20:39.174Z,23.20
2019-03-24T18:25:47.651Z,25.40
2019-03-24T18:30:53.011Z,25.07
2019-03-24T18:36:00.419Z,23.63
2019-03-24T18:41:06.928Z,26.00
2019-03-24T18:46:19.905Z,25.67
2019-03-24T18:51:47.007Z,25.57
2019-03-24T18:56:58.338Z,26.97
2019-03-24T19:02:07.976Z,24.63
2019-03-24T19:07:15.931Z,27.87
2019-03-24T19:12:24.521Z,25.67
2019-03-24T19:17:32.949Z,26.00
2019-03-24T19:22:43.871Z,27.00
2019-03-24T19:27:50.658Z,26.40
2019-03-24T19:38:20.858Z,28.90
2019-03-24T19:48:43.356Z,28.17
2019-03-24T19:59:02.395Z,32.00
2019-03-24T20:04:10.593Z,29.00
2019-03-24T20:09:17.573Z,25.55
2019-03-24T20:14:25.555Z,25.17
2019-03-24T20:19:33.736Z,27.43
2019-03-24T20:24:39.555Z,29.50
2019-03-24T20:29:44.890Z,27.40
2019-03-24T20:34:52.645Z,26.73
2019-03-24T20:39:59.753Z,26.35
2019-03-24T20:45:07.923Z,26.33
2019-03-24T20:50:13.760Z,27.53
2019-03-24T20:55:20.100Z,26.17
2019-03-24T21:00:34.895Z,26.77
2019-03-24T21:05:40.752Z,29.37
2019-03-24T21:10:50.646Z,28.63
2019-03-24T21:15:57.117Z,28.07
2019-03-24T21:21:02.314Z,26.97
2019-03-24T21:26:11.084Z,29.17
2019-03-24T21:31:16.477Z,27.10
2019-03-24T21:36:21.838Z,29.05
2019-03-24T21:41:27.422Z,32.17
2019-03-24T21:46:34.346Z,30.43
2019-03-24T21:51:40.686Z,32.33
2019-03-24T21:56:45.688Z,31.90
2019-03-24T22:01:50.793Z,30.53
2019-03-24T22:06:56.106Z,29.60
2019-03-24T22:12:01.696Z,30.87
2019-03-24T22:17:07.100Z,30.23
2019-03-24T22:22:12.425Z,30.07
2019-03-24T22:27:17.596Z,30.23
2019-03-24T22:32:23.114Z,31.03
2019-03-24T22:37:28.635Z,30.60
2019-03-24T22:42:33.966Z,29.00
2019-03-24T22:47:38.923Z,29.27
2019-03-24T22:52:50.317Z,29.60
2019-03-24T22:57:55.488Z,31.90
2019-03-24T23:03:03.944Z,30.10
2019-03-24T23:08:08.996Z,27.43
2019-03-24T23:13:15.029Z,27.43
2019-03-24T23:18:20.416Z,31.37
2019-03-24T23:23:25.646Z,29.87
2019-03-24T23:28:30.710Z,27.77
2019-03-24T23:33:40.829Z,26.40
2019-03-24T23:38:45.744Z,23.43
2019-03-24T23:43:52.347Z,22.23
2019-03-24T23:48:57.719Z,20.13
2019-03-24T23:54:03.487Z,19.13
2019-03-24T23:59:09.172Z,19.83
